sensor_id;sensor_type;location;lat;lon;timestamp;temperature;humidity
21495;DHT22;10909;53.590;10.054;2023-03-01T00:01:28;6.30;59.00
21495;DHT22;10909;53.590;10.054;2023-03-01T00:03:55;6.40;59.20
21495;DHT22;10909;53.590;10.054;2023-03-01T00:06:24;6.20;59.10
21495;DHT22;10909;53.590;10.054;2023-03-01T00:08:52;6.30;59.30
21495;DHT22;10909;53.590;10.054;2023-03-01T00:13:57;6.20;59.30
21495;DHT22;10909;53.590;10.054;2023-03-01T00:16:29;6.20;59.20
21495;DHT22;10909;53.590;10.054;2023-03-01T00:19:08;6.30;59.30
21495;DHT22;10909;53.590;10.054;2023-03-01T00:21:37;6.20;59.20
21495;DHT22;10909;53.590;10.054;2023-03-01T00:24:06;6.20;59.20
21495;DHT22;10909;53.590;10.054;2023-03-01T00:26:39;6.10;59.20
21495;DHT22;10909;53.590;10.054;2023-03-01T00:29:07;6.10;59.30
21495;DHT22;10909;53.590;10.054;2023-03-01T00:31:33;6.10;59.40
21495;DHT22;10909;53.590;10.054;2023-03-01T00:37:29;6.10;59.60
21495;DHT22;10909;53.590;10.054;2023-03-01T00:39:57;6.10;59.60
21495;DHT22;10909;53.590;10.054;2023-03-01T00:42:27;6.00;59.60
21495;DHT22;10909;53.590;10.054;2023-03-01T00:44:57;6.00;59.70
21495;DHT22;10909;53.590;10.054;2023-03-01T00:47:25;6.10;59.90
21495;DHT22;10909;53.590;10.054;2023-03-01T00:50:04;6.00;59.90
21495;DHT22;10909;53.590;10.054;2023-03-01T00:52:36;6.10;60.00
21495;DHT22;10909;53.590;10.054;2023-03-01T00:55:03;6.00;60.00
21495;DHT22;10909;53.590;10.054;2023-03-01T00:57:35;6.10;60.20
21495;DHT22;10909;53.590;10.054;2023-03-01T01:00:06;6.10;60.20
21495;DHT22;10909;53.590;10.054;2023-03-01T01:02:35;6.10;60.20
21495;DHT22;10909;53.590;10.054;2023-03-01T01:05:03;6.10;60.20
21495;DHT22;10909;53.590;10.054;2023-03-01T01:07:35;6.00;60.00
21495;DHT22;10909;53.590;10.054;2023-03-01T01:10:06;6.10;60.10
21495;DHT22;10909;53.590;10.054;2023-03-01T01:12:33;6.00;60.00
21495;DHT22;10909;53.590;10.054;2023-03-01T01:15:00;6.00;60.00
21495;DHT22;10909;53.590;10.054;2023-03-01T01:17:26;6.00;60.10
21495;DHT22;10909;53.590;10.054;2023-03-01T01:19:53;6.00;60.20
21495;DHT22;10909;53.590;10.054;2023-03-01T01:22:31;5.90;60.20
21495;DHT22;10909;53.590;10.054;2023-03-01T01:24:59;5.90;60.40
21495;DHT22;10909;53.590;10.054;2023-03-01T01:27:26;5.90;60.50
21495;DHT22;10909;53.590;10.054;2023-03-01T01:30:03;5.90;60.60
21495;DHT22;10909;53.590;10.054;2023-03-01T01:32:36;6.00;60.70
21495;DHT22;10909;53.590;10.054;2023-03-01T01:35:04;5.90;60.60
21495;DHT22;10909;53.590;10.054;2023-03-01T01:37:38;5.90;60.60
21495;DHT22;10909;53.590;10.054;2023-03-01T01:40:14;5.80;60.50
21495;DHT22;10909;53.590;10.054;2023-03-01T01:42:45;5.90;60.70
21495;DHT22;10909;53.590;10.054;2023-03-01T01:45:35;5.80;60.60
21495;DHT22;10909;53.590;10.054;2023-03-01T01:48:14;5.80;60.70
21495;DHT22;10909;53.590;10.054;2023-03-01T01:50:42;5.80;60.80
21495;DHT22;10909;53.590;10.054;2023-03-01T01:53:17;5.70;60.80
21495;DHT22;10909;53.590;10.054;2023-03-01T01:55:49;5.70;60.90
21495;DHT22;10909;53.590;10.054;2023-03-01T01:58:19;5.70;61.10
21495;DHT22;10909;53.590;10.054;2023-03-01T02:00:48;5.70;61.30
21495;DHT22;10909;53.590;10.054;2023-03-01T02:03:19;5.70;61.40
21495;DHT22;10909;53.590;10.054;2023-03-01T02:05:56;5.60;61.50
21495;DHT22;10909;53.590;10.054;2023-03-01T02:08:27;5.70;62.50
21495;DHT22;10909;53.590;10.054;2023-03-01T02:10:58;5.70;61.70
21495;DHT22;10909;53.590;10.054;2023-03-01T02:13:36;5.70;61.70
21495;DHT22;10909;53.590;10.054;2023-03-01T02:16:08;5.70;61.80
21495;DHT22;10909;53.590;10.054;2023-03-01T02:18:56;5.90;62.00
21495;DHT22;10909;53.590;10.054;2023-03-01T02:24:36;5.80;62.00
21495;DHT22;10909;53.590;10.054;2023-03-01T02:27:06;5.70;61.90
21495;DHT22;10909;53.590;10.054;2023-03-01T02:29:33;5.80;61.90
21495;DHT22;10909;53.590;10.054;2023-03-01T02:32:02;5.70;62.00
21495;DHT22;10909;53.590;10.054;2023-03-01T02:34:32;5.80;62.10
21495;DHT22;10909;53.590;10.054;2023-03-01T02:37:10;5.80;62.30
21495;DHT22;10909;53.590;10.054;2023-03-01T02:39:47;5.90;62.30
21495;DHT22;10909;53.590;10.054;2023-03-01T02:42:22;5.80;62.20
21495;DHT22;10909;53.590;10.054;2023-03-01T02:44:51;5.80;62.30
21495;DHT22;10909;53.590;10.054;2023-03-01T02:47:22;5.80;62.30
21495;DHT22;10909;53.590;10.054;2023-03-01T02:49:54;5.80;62.30
21495;DHT22;10909;53.590;10.054;2023-03-01T02:52:48;5.80;62.40
21495;DHT22;10909;53.590;10.054;2023-03-01T02:55:19;5.80;62.40
21495;DHT22;10909;53.590;10.054;2023-03-01T02:57:48;5.80;62.40
21495;DHT22;10909;53.590;10.054;2023-03-01T03:00:35;5.80;62.50
21495;DHT22;10909;53.590;10.054;2023-03-01T03:03:06;5.80;62.50
21495;DHT22;10909;53.590;10.054;2023-03-01T03:05:38;5.80;62.30
21495;DHT22;10909;53.590;10.054;2023-03-01T03:08:10;5.80;62.40
21495;DHT22;10909;53.590;10.054;2023-03-01T03:10:41;5.80;62.30
21495;DHT22;10909;53.590;10.054;2023-03-01T03:13:14;5.70;62.40
21495;DHT22;10909;53.590;10.054;2023-03-01T03:15:43;5.70;62.50
21495;DHT22;10909;53.590;10.054;2023-03-01T03:18:14;5.70;62.70
21495;DHT22;10909;53.590;10.054;2023-03-01T03:20:42;5.70;62.60
21495;DHT22;10909;53.590;10.054;2023-03-01T03:23:14;5.70;62.70
21495;DHT22;10909;53.590;10.054;2023-03-01T03:25:41;5.70;62.70
21495;DHT22;10909;53.590;10.054;2023-03-01T03:28:13;5.70;63.00
21495;DHT22;10909;53.590;10.054;2023-03-01T03:30:42;5.70;63.00
21495;DHT22;10909;53.590;10.054;2023-03-01T03:33:11;5.60;63.20
21495;DHT22;10909;53.590;10.054;2023-03-01T03:35:47;5.70;63.30
21495;DHT22;10909;53.590;10.054;2023-03-01T03:38:19;5.70;63.40
21495;DHT22;10909;53.590;10.054;2023-03-01T03:40:52;5.70;63.50
21495;DHT22;10909;53.590;10.054;2023-03-01T03:43:22;5.80;63.60
21495;DHT22;10909;53.590;10.054;2023-03-01T03:45:49;5.80;63.70
21495;DHT22;10909;53.590;10.054;2023-03-01T03:48:17;5.80;63.70
21495;DHT22;10909;53.590;10.054;2023-03-01T03:50:48;5.80;63.80
21495;DHT22;10909;53.590;10.054;2023-03-01T03:55:50;5.90;64.00
21495;DHT22;10909;53.590;10.054;2023-03-01T03:58:22;6.10;64.20
21495;DHT22;10909;53.590;10.054;2023-03-01T04:00:59;6.00;64.20
21495;DHT22;10909;53.590;10.054;2023-03-01T04:03:27;6.10;64.20
21495;DHT22;10909;53.590;10.054;2023-03-01T04:06:01;6.10;64.10
21495;DHT22;10909;53.590;10.054;2023-03-01T04:08:31;6.10;64.10
21495;DHT22;10909;53.590;10.054;2023-03-01T04:11:01;6.20;64.10
21495;DHT22;10909;53.590;10.054;2023-03-01T04:13:47;6.20;64.10
21495;DHT22;10909;53.590;10.054;2023-03-01T04:18:46;6.30;64.00
21495;DHT22;10909;53.590;10.054;2023-03-01T04:21:13;6.30;64.00
21495;DHT22;10909;53.590;10.054;2023-03-01T04:23:49;6.30;63.80
21495;DHT22;10909;53.590;10.054;2023-03-01T04:26:18;6.40;63.80
21495;DHT22;10909;53.590;10.054;2023-03-01T04:28:46;6.30;63.80
21495;DHT22;10909;53.590;10.054;2023-03-01T04:31:17;6.40;63.70
21495;DHT22;10909;53.590;10.054;2023-03-01T04:33:49;6.40;63.70
21495;DHT22;10909;53.590;10.054;2023-03-01T04:36:33;6.40;63.60
21495;DHT22;10909;53.590;10.054;2023-03-01T04:39:01;6.40;63.50
21495;DHT22;10909;53.590;10.054;2023-03-01T04:41:34;6.50;63.60
21495;DHT22;10909;53.590;10.054;2023-03-01T04:44:04;6.50;63.50
21495;DHT22;10909;53.590;10.054;2023-03-01T04:46:34;6.50;63.40
21495;DHT22;10909;53.590;10.054;2023-03-01T04:49:02;6.50;63.30
21495;DHT22;10909;53.590;10.054;2023-03-01T04:51:31;6.50;63.10
21495;DHT22;10909;53.590;10.054;2023-03-01T04:53:58;6.50;63.20
21495;DHT22;10909;53.590;10.054;2023-03-01T04:56:31;6.60;63.20
21495;DHT22;10909;53.590;10.054;2023-03-01T05:01:25;6.60;63.20
21495;DHT22;10909;53.590;10.054;2023-03-01T05:03:52;6.60;63.20
21495;DHT22;10909;53.590;10.054;2023-03-01T05:08:48;6.70;63.00
21495;DHT22;10909;53.590;10.054;2023-03-01T05:11:15;6.70;62.80
21495;DHT22;10909;53.590;10.054;2023-03-01T05:13:43;6.70;62.60
21495;DHT22;10909;53.590;10.054;2023-03-01T05:16:11;6.70;62.50
21495;DHT22;10909;53.590;10.054;2023-03-01T05:18:50;6.70;62.30
21495;DHT22;10909;53.590;10.054;2023-03-01T05:21:17;6.70;62.40
21495;DHT22;10909;53.590;10.054;2023-03-01T05:23:48;6.70;62.40
21495;DHT22;10909;53.590;10.054;2023-03-01T05:26:16;6.70;62.50
21495;DHT22;10909;53.590;10.054;2023-03-01T05:28:48;6.80;62.40
21495;DHT22;10909;53.590;10.054;2023-03-01T05:31:16;6.80;62.20
21495;DHT22;10909;53.590;10.054;2023-03-01T05:33:43;6.80;62.30
21495;DHT22;10909;53.590;10.054;2023-03-01T05:36:15;6.80;62.10
21495;DHT22;10909;53.590;10.054;2023-03-01T05:38:44;6.80;62.00
21495;DHT22;10909;53.590;10.054;2023-03-01T05:41:16;6.80;61.60
21495;DHT22;10909;53.590;10.054;2023-03-01T05:43:43;6.80;61.50
21495;DHT22;10909;53.590;10.054;2023-03-01T05:46:15;6.70;61.50
21495;DHT22;10909;53.590;10.054;2023-03-01T05:51:26;6.70;61.00
21495;DHT22;10909;53.590;10.054;2023-03-01T05:56:27;6.60;61.00
21495;DHT22;10909;53.590;10.054;2023-03-01T06:01:37;6.60;61.30
21495;DHT22;10909;53.590;10.054;2023-03-01T06:04:05;6.60;61.30
21495;DHT22;10909;53.590;10.054;2023-03-01T06:06:39;6.60;61.40
21495;DHT22;10909;53.590;10.054;2023-03-01T06:09:07;6.60;61.40
21495;DHT22;10909;53.590;10.054;2023-03-01T06:11:43;6.50;61.30
21495;DHT22;10909;53.590;10.054;2023-03-01T06:14:12;6.50;61.30
21495;DHT22;10909;53.590;10.054;2023-03-01T06:16:40;6.50;61.60
21495;DHT22;10909;53.590;10.054;2023-03-01T06:19:11;6.40;61.60
21495;DHT22;10909;53.590;10.054;2023-03-01T06:24:14;6.40;61.80
21495;DHT22;10909;53.590;10.054;2023-03-01T06:26:41;6.40;62.00
21495;DHT22;10909;53.590;10.054;2023-03-01T06:29:13;6.20;61.90
21495;DHT22;10909;53.590;10.054;2023-03-01T06:31:43;6.30;62.00
21495;DHT22;10909;53.590;10.054;2023-03-01T06:34:13;6.30;62.10
21495;DHT22;10909;53.590;10.054;2023-03-01T06:36:42;6.30;62.20
21495;DHT22;10909;53.590;10.054;2023-03-01T06:39:10;6.30;63.00
21495;DHT22;10909;53.590;10.054;2023-03-01T06:41:39;6.30;62.30
21495;DHT22;10909;53.590;10.054;2023-03-01T06:44:14;6.30;62.30
21495;DHT22;10909;53.590;10.054;2023-03-01T06:46:44;6.40;62.20
21495;DHT22;10909;53.590;10.054;2023-03-01T06:49:15;6.40;62.00
21495;DHT22;10909;53.590;10.054;2023-03-01T06:51:43;6.40;62.20
21495;DHT22;10909;53.590;10.054;2023-03-01T06:56:48;6.40;62.00
21495;DHT22;10909;53.590;10.054;2023-03-01T07:01:44;6.50;61.90
21495;DHT22;10909;53.590;10.054;2023-03-01T07:06:43;6.50;61.70
21495;DHT22;10909;53.590;10.054;2023-03-01T07:09:09;6.50;61.60
21495;DHT22;10909;53.590;10.054;2023-03-01T07:11:47;6.50;61.70
21495;DHT22;10909;53.590;10.054;2023-03-01T07:16:45;6.60;62.60
21495;DHT22;10909;53.590;10.054;2023-03-01T07:21:44;6.50;61.30
21495;DHT22;10909;53.590;10.054;2023-03-01T07:24:11;6.60;61.40
21495;DHT22;10909;53.590;10.054;2023-03-01T07:26:44;6.60;61.60
21495;DHT22;10909;53.590;10.054;2023-03-01T07:29:12;6.60;61.70
21495;DHT22;10909;53.590;10.054;2023-03-01T07:31:39;6.70;61.80
21495;DHT22;10909;53.590;10.054;2023-03-01T07:34:10;6.70;61.30
21495;DHT22;10909;53.590;10.054;2023-03-01T07:36:38;6.70;61.50
21495;DHT22;10909;53.590;10.054;2023-03-01T07:39:09;6.70;61.40
21495;DHT22;10909;53.590;10.054;2023-03-01T07:41:36;6.70;61.30
21495;DHT22;10909;53.590;10.054;2023-03-01T07:44:07;6.80;61.40
21495;DHT22;10909;53.590;10.054;2023-03-01T07:46:34;6.80;61.50
21495;DHT22;10909;53.590;10.054;2023-03-01T07:49:01;6.80;61.40
21495;DHT22;10909;53.590;10.054;2023-03-01T07:51:27;6.80;61.90
21495;DHT22;10909;53.590;10.054;2023-03-01T07:53:55;6.80;61.90
21495;DHT22;10909;53.590;10.054;2023-03-01T07:56:27;6.80;62.00
21495;DHT22;10909;53.590;10.054;2023-03-01T07:58:54;6.80;61.60
21495;DHT22;10909;53.590;10.054;2023-03-01T08:01:28;6.80;61.90
21495;DHT22;10909;53.590;10.054;2023-03-01T08:03:55;6.90;62.10
21495;DHT22;10909;53.590;10.054;2023-03-01T08:06:22;6.80;62.10
21495;DHT22;10909;53.590;10.054;2023-03-01T08:08:48;6.90;62.30
21495;DHT22;10909;53.590;10.054;2023-03-01T08:11:15;6.90;62.30
21495;DHT22;10909;53.590;10.054;2023-03-01T08:13:42;6.90;62.30
21495;DHT22;10909;53.590;10.054;2023-03-01T08:16:15;7.00;62.70
21495;DHT22;10909;53.590;10.054;2023-03-01T08:18:42;7.00;62.80
21495;DHT22;10909;53.590;10.054;2023-03-01T08:21:18;7.00;62.60
21495;DHT22;10909;53.590;10.054;2023-03-01T08:23:45;7.10;62.60
21495;DHT22;10909;53.590;10.054;2023-03-01T08:26:14;7.10;62.70
21495;DHT22;10909;53.590;10.054;2023-03-01T08:28:42;7.10;63.00
21495;DHT22;10909;53.590;10.054;2023-03-01T08:31:24;7.10;63.00
21495;DHT22;10909;53.590;10.054;2023-03-01T08:33:54;7.20;63.40
21495;DHT22;10909;53.590;10.054;2023-03-01T08:36:25;7.20;63.30
21495;DHT22;10909;53.590;10.054;2023-03-01T08:38:56;7.30;63.30
21495;DHT22;10909;53.590;10.054;2023-03-01T08:41:22;7.40;63.70
21495;DHT22;10909;53.590;10.054;2023-03-01T08:43:50;7.40;63.80
21495;DHT22;10909;53.590;10.054;2023-03-01T08:46:25;7.50;64.00
21495;DHT22;10909;53.590;10.054;2023-03-01T08:48:52;7.60;63.90
21495;DHT22;10909;53.590;10.054;2023-03-01T08:51:24;7.60;63.80
21495;DHT22;10909;53.590;10.054;2023-03-01T08:53:53;7.70;63.60
21495;DHT22;10909;53.590;10.054;2023-03-01T08:56:22;7.80;63.60
21495;DHT22;10909;53.590;10.054;2023-03-01T08:58:50;7.80;63.60
21495;DHT22;10909;53.590;10.054;2023-03-01T09:01:19;7.80;63.60
21495;DHT22;10909;53.590;10.054;2023-03-01T09:03:49;7.90;63.90
21495;DHT22;10909;53.590;10.054;2023-03-01T09:06:23;7.90;63.90
21495;DHT22;10909;53.590;10.054;2023-03-01T09:08:52;8.00;64.10
21495;DHT22;10909;53.590;10.054;2023-03-01T09:11:25;8.10;64.10
21495;DHT22;10909;53.590;10.054;2023-03-01T09:13:52;8.20;64.10
21495;DHT22;10909;53.590;10.054;2023-03-01T09:16:20;8.20;64.00
21495;DHT22;10909;53.590;10.054;2023-03-01T09:18:51;8.30;64.00
21495;DHT22;10909;53.590;10.054;2023-03-01T09:21:18;8.30;64.00
21495;DHT22;10909;53.590;10.054;2023-03-01T09:23:46;8.40;63.90
21495;DHT22;10909;53.590;10.054;2023-03-01T09:26:16;8.50;63.90
21495;DHT22;10909;53.590;10.054;2023-03-01T09:28:45;8.50;63.80
21495;DHT22;10909;53.590;10.054;2023-03-01T09:31:12;8.60;63.80
21495;DHT22;10909;53.590;10.054;2023-03-01T09:33:39;8.60;63.70
21495;DHT22;10909;53.590;10.054;2023-03-01T09:36:07;8.60;63.60
21495;DHT22;10909;53.590;10.054;2023-03-01T09:38:34;8.70;63.80
21495;DHT22;10909;53.590;10.054;2023-03-01T09:41:01;8.70;63.70
21495;DHT22;10909;53.590;10.054;2023-03-01T09:46:11;8.80;64.00
21495;DHT22;10909;53.590;10.054;2023-03-01T09:48:44;8.80;64.00
21495;DHT22;10909;53.590;10.054;2023-03-01T09:51:27;8.90;63.90
21495;DHT22;10909;53.590;10.054;2023-03-01T09:53:54;8.90;63.80
21495;DHT22;10909;53.590;10.054;2023-03-01T09:56:36;9.00;64.00
21495;DHT22;10909;53.590;10.054;2023-03-01T10:08:02;9.10;64.00
21495;DHT22;10909;53.590;10.054;2023-03-01T10:10:39;9.20;64.10
21495;DHT22;10909;53.590;10.054;2023-03-01T10:13:22;9.20;64.10
21495;DHT22;10909;53.590;10.054;2023-03-01T10:16:19;9.30;64.00
21495;DHT22;10909;53.590;10.054;2023-03-01T10:19:00;9.20;63.80
21495;DHT22;10909;53.590;10.054;2023-03-01T10:21:30;9.20;63.90
21495;DHT22;10909;53.590;10.054;2023-03-01T10:24:12;9.10;63.70
21495;DHT22;10909;53.590;10.054;2023-03-01T10:26:58;9.10;63.80
21495;DHT22;10909;53.590;10.054;2023-03-01T10:29:37;9.20;63.80
21495;DHT22;10909;53.590;10.054;2023-03-01T10:32:10;9.20;64.10
21495;DHT22;10909;53.590;10.054;2023-03-01T10:34:36;9.10;64.20
21495;DHT22;10909;53.590;10.054;2023-03-01T10:37:14;9.20;64.30
21495;DHT22;10909;53.590;10.054;2023-03-01T10:40:07;9.20;64.20
21495;DHT22;10909;53.590;10.054;2023-03-01T10:42:47;9.20;63.80
21495;DHT22;10909;53.590;10.054;2023-03-01T10:48:25;9.20;64.30
21495;DHT22;10909;53.590;10.054;2023-03-01T10:51:06;9.20;64.20
21495;DHT22;10909;53.590;10.054;2023-03-01T10:53:40;9.20;64.30
21495;DHT22;10909;53.590;10.054;2023-03-01T10:56:13;9.20;64.20
21495;DHT22;10909;53.590;10.054;2023-03-01T10:58:58;9.20;64.30
21495;DHT22;10909;53.590;10.054;2023-03-01T11:01:28;9.20;64.40
21495;DHT22;10909;53.590;10.054;2023-03-01T11:04:11;9.20;64.70
21495;DHT22;10909;53.590;10.054;2023-03-01T11:06:41;9.20;64.80
21495;DHT22;10909;53.590;10.054;2023-03-01T11:09:19;9.20;65.10
21495;DHT22;10909;53.590;10.054;2023-03-01T11:11:46;9.20;65.30
21495;DHT22;10909;53.590;10.054;2023-03-01T11:14:24;9.30;65.30
21495;DHT22;10909;53.590;10.054;2023-03-01T11:19:41;9.40;65.10
21495;DHT22;10909;53.590;10.054;2023-03-01T11:22:19;9.40;65.20
21495;DHT22;10909;53.590;10.054;2023-03-01T11:24:51;9.40;65.30
21495;DHT22;10909;53.590;10.054;2023-03-01T11:27:35;9.40;65.40
21495;DHT22;10909;53.590;10.054;2023-03-01T11:30:13;9.50;65.70
21495;DHT22;10909;53.590;10.054;2023-03-01T11:32:47;9.50;65.80
21495;DHT22;10909;53.590;10.054;2023-03-01T11:35:27;9.80;65.90
21495;DHT22;10909;53.590;10.054;2023-03-01T11:38:16;9.70;65.50
21495;DHT22;10909;53.590;10.054;2023-03-01T11:41:13;9.80;65.30
21495;DHT22;10909;53.590;10.054;2023-03-01T11:43:59;9.80;65.30
21495;DHT22;10909;53.590;10.054;2023-03-01T11:46:34;9.80;65.20
21495;DHT22;10909;53.590;10.054;2023-03-01T11:49:36;9.90;65.50
21495;DHT22;10909;53.590;10.054;2023-03-01T12:03:26;10.10;65.60
21495;DHT22;10909;53.590;10.054;2023-03-01T12:08:45;10.40;65.90
21495;DHT22;10909;53.590;10.054;2023-03-01T12:17:57;10.50;65.20
21495;DHT22;10909;53.590;10.054;2023-03-01T12:20:58;10.60;65.30
21495;DHT22;10909;53.590;10.054;2023-03-01T12:23:47;10.60;64.30
21495;DHT22;10909;53.590;10.054;2023-03-01T12:29:25;10.60;65.00
21495;DHT22;10909;53.590;10.054;2023-03-01T12:32:25;10.60;65.00
21495;DHT22;10909;53.590;10.054;2023-03-01T12:47:20;11.10;64.70
21495;DHT22;10909;53.590;10.054;2023-03-01T12:50:00;11.20;65.40
21495;DHT22;10909;53.590;10.054;2023-03-01T12:52:41;11.20;64.20
21495;DHT22;10909;53.590;10.054;2023-03-01T12:55:37;11.30;63.90
21495;DHT22;10909;53.590;10.054;2023-03-01T13:03:57;11.40;65.00
21495;DHT22;10909;53.590;10.054;2023-03-01T13:11:47;11.90;67.20
21495;DHT22;10909;53.590;10.054;2023-03-01T13:19:25;13.30;71.10
21495;DHT22;10909;53.590;10.054;2023-03-01T13:21:53;13.90;70.20
21495;DHT22;10909;53.590;10.054;2023-03-01T13:29:54;15.40;66.90
21495;DHT22;10909;53.590;10.054;2023-03-01T13:32:34;15.90;67.30
21495;DHT22;10909;53.590;10.054;2023-03-01T13:42:54;17.40;65.70
21495;DHT22;10909;53.590;10.054;2023-03-01T13:48:22;18.30;63.70
21495;DHT22;10909;53.590;10.054;2023-03-01T13:51:09;18.60;62.90
21495;DHT22;10909;53.590;10.054;2023-03-01T13:53:45;19.00;61.90
21495;DHT22;10909;53.590;10.054;2023-03-01T13:56:20;19.40;62.60
21495;DHT22;10909;53.590;10.054;2023-03-01T13:59:18;19.70;61.50
21495;DHT22;10909;53.590;10.054;2023-03-01T14:01:55;20.10;59.30
21495;DHT22;10909;53.590;10.054;2023-03-01T14:04:32;20.40;60.50
21495;DHT22;10909;53.590;10.054;2023-03-01T14:07:19;21.00;51.50
21495;DHT22;10909;53.590;10.054;2023-03-01T14:09:53;21.10;52.00
21495;DHT22;10909;53.590;10.054;2023-03-01T14:12:52;21.20;55.00
21495;DHT22;10909;53.590;10.054;2023-03-01T14:15:45;21.40;53.60
21495;DHT22;10909;53.590;10.054;2023-03-01T14:18:28;21.40;55.50
21495;DHT22;10909;53.590;10.054;2023-03-01T14:20:58;21.60;54.10
21495;DHT22;10909;53.590;10.054;2023-03-01T14:23:32;21.80;55.40
21495;DHT22;10909;53.590;10.054;2023-03-01T14:26:04;22.10;57.20
21495;DHT22;10909;53.590;10.054;2023-03-01T14:28:36;22.30;55.40
21495;DHT22;10909;53.590;10.054;2023-03-01T14:31:36;22.60;53.80
21495;DHT22;10909;53.590;10.054;2023-03-01T14:34:04;22.80;50.80
21495;DHT22;10909;53.590;10.054;2023-03-01T14:36:38;23.00;53.70
21495;DHT22;10909;53.590;10.054;2023-03-01T14:39:17;23.30;54.90
21495;DHT22;10909;53.590;10.054;2023-03-01T14:41:44;23.50;53.50
21495;DHT22;10909;53.590;10.054;2023-03-01T14:44:22;23.80;55.40
21495;DHT22;10909;53.590;10.054;2023-03-01T14:46:57;24.10;52.60
21495;DHT22;10909;53.590;10.054;2023-03-01T14:52:17;24.70;51.00
21495;DHT22;10909;53.590;10.054;2023-03-01T14:54:52;25.00;50.80
21495;DHT22;10909;53.590;10.054;2023-03-01T14:57:24;25.20;50.40
21495;DHT22;10909;53.590;10.054;2023-03-01T14:59:52;25.40;51.30
21495;DHT22;10909;53.590;10.054;2023-03-01T15:04:53;25.80;51.30
21495;DHT22;10909;53.590;10.054;2023-03-01T15:09:52;26.20;50.40
21495;DHT22;10909;53.590;10.054;2023-03-01T15:12:36;26.30;50.00
21495;DHT22;10909;53.590;10.054;2023-03-01T15:15:37;26.40;47.40
21495;DHT22;10909;53.590;10.054;2023-03-01T15:18:14;26.50;44.10
21495;DHT22;10909;53.590;10.054;2023-03-01T15:20:49;26.50;46.00
21495;DHT22;10909;53.590;10.054;2023-03-01T15:23:27;26.50;47.10
21495;DHT22;10909;53.590;10.054;2023-03-01T15:25:55;26.50;44.20
21495;DHT22;10909;53.590;10.054;2023-03-01T15:28:43;26.50;46.70
21495;DHT22;10909;53.590;10.054;2023-03-01T15:31:20;26.50;45.30
21495;DHT22;10909;53.590;10.054;2023-03-01T15:33:51;26.50;45.40
21495;DHT22;10909;53.590;10.054;2023-03-01T15:36:38;26.50;45.50
21495;DHT22;10909;53.590;10.054;2023-03-01T15:39:32;26.60;43.10
21495;DHT22;10909;53.590;10.054;2023-03-01T15:44:32;26.50;44.10
21495;DHT22;10909;53.590;10.054;2023-03-01T15:46:59;26.10;42.70
21495;DHT22;10909;53.590;10.054;2023-03-01T15:49:43;25.70;41.70
21495;DHT22;10909;53.590;10.054;2023-03-01T15:52:36;25.00;39.50
21495;DHT22;10909;53.590;10.054;2023-03-01T15:55:22;24.20;38.10
21495;DHT22;10909;53.590;10.054;2023-03-01T15:58:18;23.40;40.00
21495;DHT22;10909;53.590;10.054;2023-03-01T16:00:58;22.60;40.10
21495;DHT22;10909;53.590;10.054;2023-03-01T16:03:33;21.90;41.00
21495;DHT22;10909;53.590;10.054;2023-03-01T16:08:40;20.60;42.10
21495;DHT22;10909;53.590;10.054;2023-03-01T16:11:18;20.10;42.80
21495;DHT22;10909;53.590;10.054;2023-03-01T16:13:44;19.40;41.50
21495;DHT22;10909;53.590;10.054;2023-03-01T16:16:11;19.00;43.10
21495;DHT22;10909;53.590;10.054;2023-03-01T16:18:40;18.70;43.70
21495;DHT22;10909;53.590;10.054;2023-03-01T16:21:06;18.40;44.00
21495;DHT22;10909;53.590;10.054;2023-03-01T16:23:32;18.10;44.20
21495;DHT22;10909;53.590;10.054;2023-03-01T16:26:00;17.80;44.80
21495;DHT22;10909;53.590;10.054;2023-03-01T16:28:26;17.50;45.00
21495;DHT22;10909;53.590;10.054;2023-03-01T16:30:55;17.20;45.50
21495;DHT22;10909;53.590;10.054;2023-03-01T16:33:21;16.90;45.60
21495;DHT22;10909;53.590;10.054;2023-03-01T16:35:46;16.70;46.10
21495;DHT22;10909;53.590;10.054;2023-03-01T16:38:12;16.50;46.60
21495;DHT22;10909;53.590;10.054;2023-03-01T16:40:50;16.30;46.70
21495;DHT22;10909;53.590;10.054;2023-03-01T16:43:19;15.80;47.40
21495;DHT22;10909;53.590;10.054;2023-03-01T16:45:45;15.70;47.70
21495;DHT22;10909;53.590;10.054;2023-03-01T16:48:12;15.60;47.90
21495;DHT22;10909;53.590;10.054;2023-03-01T16:50:38;15.50;48.20
21495;DHT22;10909;53.590;10.054;2023-03-01T16:53:03;15.40;48.50
21495;DHT22;10909;53.590;10.054;2023-03-01T16:55:30;15.30;48.70
21495;DHT22;10909;53.590;10.054;2023-03-01T16:57:56;15.20;48.80
21495;DHT22;10909;53.590;10.054;2023-03-01T17:00:22;15.00;49.00
21495;DHT22;10909;53.590;10.054;2023-03-01T17:02:47;14.70;49.80
21495;DHT22;10909;53.590;10.054;2023-03-01T17:05:13;14.70;49.70
21495;DHT22;10909;53.590;10.054;2023-03-01T17:07:39;14.60;49.80
21495;DHT22;10909;53.590;10.054;2023-03-01T17:10:09;14.50;49.90
21495;DHT22;10909;53.590;10.054;2023-03-01T17:12:36;14.40;50.10
21495;DHT22;10909;53.590;10.054;2023-03-01T17:15:03;14.20;50.20
21495;DHT22;10909;53.590;10.054;2023-03-01T17:17:29;14.10;50.30
21495;DHT22;10909;53.590;10.054;2023-03-01T17:19:55;14.00;50.50
21495;DHT22;10909;53.590;10.054;2023-03-01T17:22:21;13.90;50.70
21495;DHT22;10909;53.590;10.054;2023-03-01T17:24:48;13.70;50.60
21495;DHT22;10909;53.590;10.054;2023-03-01T17:27:14;13.60;50.60
21495;DHT22;10909;53.590;10.054;2023-03-01T17:29:40;13.40;50.90
21495;DHT22;10909;53.590;10.054;2023-03-01T17:32:07;13.30;51.10
21495;DHT22;10909;53.590;10.054;2023-03-01T17:34:33;13.10;51.30
21495;DHT22;10909;53.590;10.054;2023-03-01T17:36:59;12.90;51.60
21495;DHT22;10909;53.590;10.054;2023-03-01T17:39:25;12.70;52.30
21495;DHT22;10909;53.590;10.054;2023-03-01T17:41:56;12.60;52.10
21495;DHT22;10909;53.590;10.054;2023-03-01T17:44:22;12.40;52.40
21495;DHT22;10909;53.590;10.054;2023-03-01T17:46:48;12.20;52.80
21495;DHT22;10909;53.590;10.054;2023-03-01T17:49:14;12.00;53.00
21495;DHT22;10909;53.590;10.054;2023-03-01T17:51:41;11.90;53.20
21495;DHT22;10909;53.590;10.054;2023-03-01T17:54:07;11.70;53.30
21495;DHT22;10909;53.590;10.054;2023-03-01T17:56:32;11.60;53.50
21495;DHT22;10909;53.590;10.054;2023-03-01T17:58:58;11.50;53.80
21495;DHT22;10909;53.590;10.054;2023-03-01T18:01:25;11.40;53.90
21495;DHT22;10909;53.590;10.054;2023-03-01T18:03:53;11.30;54.00
21495;DHT22;10909;53.590;10.054;2023-03-01T18:06:24;11.20;54.20
21495;DHT22;10909;53.590;10.054;2023-03-01T18:08:51;11.00;54.30
21495;DHT22;10909;53.590;10.054;2023-03-01T18:11:18;10.90;54.30
21495;DHT22;10909;53.590;10.054;2023-03-01T18:13:44;10.80;54.40
21495;DHT22;10909;53.590;10.054;2023-03-01T18:16:14;10.70;54.60
21495;DHT22;10909;53.590;10.054;2023-03-01T18:18:42;10.60;54.80